sensor_id;sensor_type;location;lat;lon;timestamp;P1;durP1;ratioP1;P2;durP2;ratioP2
23782;SDS011;12071;50.850;4.446;2023-02-28T00:00:51;11.20;;;7.07;;
23782;SDS011;12071;50.850;4.446;2023-02-28T00:03:17;10.43;;;7.10;;
23782;SDS011;12071;50.850;4.446;2023-02-28T00:05:42;12.68;;;7.25;;
23782;SDS011;12071;50.850;4.446;2023-02-28T00:08:08;11.02;;;7.35;;
23782;SDS011;12071;50.850;4.446;2023-02-28T00:10:34;11.23;;;6.50;;
23782;SDS011;12071;50.850;4.446;2023-02-28T00:13:02;12.23;;;6.60;;
23782;SDS011;12071;50.850;4.446;2023-02-28T00:15:29;11.40;;;7.28;;
23782;SDS011;12071;50.850;4.446;2023-02-28T00:17:55;10.80;;;6.47;;
23782;SDS011;12071;50.850;4.446;2023-02-28T00:20:21;10.43;;;7.05;;
23782;SDS011;12071;50.850;4.446;2023-02-28T00:22:48;10.60;;;6.82;;
23782;SDS011;12071;50.850;4.446;2023-02-28T00:25:16;8.40;;;6.18;;
23782;SDS011;12071;50.850;4.446;2023-02-28T00:27:46;10.52;;;6.47;;
23782;SDS011;12071;50.850;4.446;2023-02-28T00:30:14;14.20;;;6.15;;
23782;SDS011;12071;50.850;4.446;2023-02-28T00:32:42;10.15;;;6.72;;
23782;SDS011;12071;50.850;4.446;2023-02-28T00:35:10;10.10;;;6.60;;
23782;SDS011;12071;50.850;4.446;2023-02-28T00:37:36;11.25;;;6.90;;
23782;SDS011;12071;50.850;4.446;2023-02-28T00:40:03;9.45;;;6.72;;
23782;SDS011;12071;50.850;4.446;2023-02-28T00:42:30;11.18;;;7.50;;
23782;SDS011;12071;50.850;4.446;2023-02-28T00:44:56;11.45;;;6.75;;
23782;SDS011;12071;50.850;4.446;2023-02-28T00:47:22;10.18;;;6.50;;
23782;SDS011;12071;50.850;4.446;2023-02-28T00:49:47;11.70;;;6.95;;
23782;SDS011;12071;50.850;4.446;2023-02-28T00:52:13;9.30;;;6.32;;
23782;SDS011;12071;50.850;4.446;2023-02-28T00:54:38;9.35;;;6.18;;
23782;SDS011;12071;50.850;4.446;2023-02-28T00:57:04;12.43;;;6.82;;
23782;SDS011;12071;50.850;4.446;2023-02-28T00:59:30;13.57;;;6.93;;
23782;SDS011;12071;50.850;4.446;2023-02-28T01:01:55;11.75;;;6.65;;
23782;SDS011;12071;50.850;4.446;2023-02-28T01:04:21;9.52;;;6.57;;
23782;SDS011;12071;50.850;4.446;2023-02-28T01:06:47;10.23;;;6.75;;
23782;SDS011;12071;50.850;4.446;2023-02-28T01:09:12;10.95;;;6.97;;
23782;SDS011;12071;50.850;4.446;2023-02-28T01:11:38;11.52;;;6.80;;
23782;SDS011;12071;50.850;4.446;2023-02-28T01:14:05;11.57;;;7.22;;
23782;SDS011;12071;50.850;4.446;2023-02-28T01:16:31;12.05;;;6.78;;
23782;SDS011;12071;50.850;4.446;2023-02-28T01:18:56;10.70;;;6.80;;
23782;SDS011;12071;50.850;4.446;2023-02-28T01:21:23;12.18;;;7.00;;
23782;SDS011;12071;50.850;4.446;2023-02-28T01:23:49;7.30;;;6.15;;
23782;SDS011;12071;50.850;4.446;2023-02-28T01:26:18;11.35;;;6.72;;
23782;SDS011;12071;50.850;4.446;2023-02-28T01:28:46;10.52;;;6.75;;
23782;SDS011;12071;50.850;4.446;2023-02-28T01:31:12;10.50;;;7.03;;
23782;SDS011;12071;50.850;4.446;2023-02-28T01:33:38;11.05;;;7.40;;
23782;SDS011;12071;50.850;4.446;2023-02-28T01:36:05;9.65;;;6.97;;
23782;SDS011;12071;50.850;4.446;2023-02-28T01:38:34;10.73;;;6.43;;
23782;SDS011;12071;50.850;4.446;2023-02-28T01:41:00;9.95;;;6.70;;
23782;SDS011;12071;50.850;4.446;2023-02-28T01:45:53;9.85;;;6.85;;
23782;SDS011;12071;50.850;4.446;2023-02-28T01:48:31;8.82;;;6.90;;
23782;SDS011;12071;50.850;4.446;2023-02-28T01:51:00;8.82;;;7.47;;
23782;SDS011;12071;50.850;4.446;2023-02-28T01:53:34;12.55;;;7.80;;
23782;SDS011;12071;50.850;4.446;2023-02-28T01:56:06;11.18;;;7.43;;
23782;SDS011;12071;50.850;4.446;2023-02-28T01:58:35;13.23;;;7.30;;
23782;SDS011;12071;50.850;4.446;2023-02-28T02:01:02;12.25;;;7.70;;
23782;SDS011;12071;50.850;4.446;2023-02-28T02:03:28;13.20;;;7.70;;
23782;SDS011;12071;50.850;4.446;2023-02-28T02:05:55;11.18;;;7.65;;
23782;SDS011;12071;50.850;4.446;2023-02-28T02:08:24;13.55;;;8.60;;
23782;SDS011;12071;50.850;4.446;2023-02-28T02:10:56;14.60;;;8.23;;
23782;SDS011;12071;50.850;4.446;2023-02-28T02:13:34;12.75;;;7.75;;
23782;SDS011;12071;50.850;4.446;2023-02-28T02:18:50;15.20;;;8.75;;
23782;SDS011;12071;50.850;4.446;2023-02-28T02:31:54;13.07;;;9.13;;
23782;SDS011;12071;50.850;4.446;2023-02-28T02:40:08;11.80;;;8.90;;
23782;SDS011;12071;50.850;4.446;2023-02-28T02:42:52;12.82;;;8.95;;
23782;SDS011;12071;50.850;4.446;2023-02-28T02:45:31;11.63;;;9.00;;
23782;SDS011;12071;50.850;4.446;2023-02-28T02:48:05;13.55;;;9.40;;
23782;SDS011;12071;50.850;4.446;2023-02-28T02:50:36;13.23;;;9.32;;
23782;SDS011;12071;50.850;4.446;2023-02-28T02:53:05;13.75;;;9.35;;
23782;SDS011;12071;50.850;4.446;2023-02-28T02:55:34;14.00;;;8.82;;
23782;SDS011;12071;50.850;4.446;2023-02-28T02:58:04;14.20;;;9.00;;
23782;SDS011;12071;50.850;4.446;2023-02-28T03:00:34;13.88;;;9.68;;
23782;SDS011;12071;50.850;4.446;2023-02-28T03:03:06;15.85;;;9.75;;
23782;SDS011;12071;50.850;4.446;2023-02-28T03:05:41;18.08;;;10.55;;
23782;SDS011;12071;50.850;4.446;2023-02-28T03:08:10;16.58;;;9.95;;
23782;SDS011;12071;50.850;4.446;2023-02-28T03:13:50;13.80;;;10.02;;
23782;SDS011;12071;50.850;4.446;2023-02-28T03:27:29;15.07;;;10.40;;
23782;SDS011;12071;50.850;4.446;2023-02-28T03:30:07;17.00;;;10.68;;
23782;SDS011;12071;50.850;4.446;2023-02-28T03:32:43;15.07;;;9.95;;
23782;SDS011;12071;50.850;4.446;2023-02-28T03:37:39;14.93;;;11.38;;
23782;SDS011;12071;50.850;4.446;2023-02-28T03:40:11;17.88;;;10.93;;
23782;SDS011;12071;50.850;4.446;2023-02-28T03:42:41;16.42;;;10.85;;
23782;SDS011;12071;50.850;4.446;2023-02-28T03:45:16;21.63;;;10.40;;
23782;SDS011;12071;50.850;4.446;2023-02-28T03:50:35;18.02;;;10.98;;
23782;SDS011;12071;50.850;4.446;2023-02-28T03:53:13;18.73;;;10.90;;
23782;SDS011;12071;50.850;4.446;2023-02-28T03:56:05;16.17;;;10.60;;
23782;SDS011;12071;50.850;4.446;2023-02-28T03:58:35;18.17;;;11.50;;
23782;SDS011;12071;50.850;4.446;2023-02-28T04:01:32;16.00;;;11.15;;
23782;SDS011;12071;50.850;4.446;2023-02-28T04:04:02;16.65;;;11.07;;
23782;SDS011;12071;50.850;4.446;2023-02-28T04:06:29;19.90;;;11.68;;
23782;SDS011;12071;50.850;4.446;2023-02-28T04:08:57;16.67;;;11.27;;
23782;SDS011;12071;50.850;4.446;2023-02-28T04:11:24;16.02;;;11.75;;
23782;SDS011;12071;50.850;4.446;2023-02-28T04:13:57;17.13;;;11.82;;
23782;SDS011;12071;50.850;4.446;2023-02-28T04:16:22;19.88;;;12.70;;
23782;SDS011;12071;50.850;4.446;2023-02-28T04:18:48;18.63;;;11.57;;
23782;SDS011;12071;50.850;4.446;2023-02-28T04:21:14;16.88;;;12.20;;
23782;SDS011;12071;50.850;4.446;2023-02-28T04:23:39;17.30;;;12.07;;
23782;SDS011;12071;50.850;4.446;2023-02-28T04:26:05;17.13;;;11.82;;
23782;SDS011;12071;50.850;4.446;2023-02-28T04:28:31;20.75;;;12.77;;
23782;SDS011;12071;50.850;4.446;2023-02-28T04:30:59;19.08;;;12.98;;
23782;SDS011;12071;50.850;4.446;2023-02-28T04:33:27;20.85;;;13.10;;
23782;SDS011;12071;50.850;4.446;2023-02-28T04:36:06;20.33;;;13.23;;
23782;SDS011;12071;50.850;4.446;2023-02-28T04:38:34;20.83;;;13.63;;
23782;SDS011;12071;50.850;4.446;2023-02-28T04:41:01;20.92;;;13.38;;
23782;SDS011;12071;50.850;4.446;2023-02-28T04:43:27;22.35;;;13.50;;
23782;SDS011;12071;50.850;4.446;2023-02-28T04:45:53;21.23;;;13.80;;
23782;SDS011;12071;50.850;4.446;2023-02-28T04:48:23;18.02;;;13.70;;
23782;SDS011;12071;50.850;4.446;2023-02-28T04:50:49;18.48;;;13.20;;
23782;SDS011;12071;50.850;4.446;2023-02-28T04:53:15;19.45;;;13.90;;
23782;SDS011;12071;50.850;4.446;2023-02-28T04:55:41;20.70;;;12.60;;
23782;SDS011;12071;50.850;4.446;2023-02-28T04:58:07;21.92;;;13.35;;
23782;SDS011;12071;50.850;4.446;2023-02-28T05:00:33;19.63;;;13.13;;
23782;SDS011;12071;50.850;4.446;2023-02-28T05:02:59;22.80;;;15.50;;
23782;SDS011;12071;50.850;4.446;2023-02-28T05:05:24;20.65;;;13.52;;
23782;SDS011;12071;50.850;4.446;2023-02-28T05:07:50;24.27;;;14.13;;
23782;SDS011;12071;50.850;4.446;2023-02-28T05:10:15;18.42;;;13.20;;
23782;SDS011;12071;50.850;4.446;2023-02-28T05:12:41;23.13;;;14.80;;
23782;SDS011;12071;50.850;4.446;2023-02-28T05:15:07;22.77;;;13.93;;
23782;SDS011;12071;50.850;4.446;2023-02-28T05:17:37;19.00;;;13.68;;
23782;SDS011;12071;50.850;4.446;2023-02-28T05:20:03;17.90;;;12.60;;
23782;SDS011;12071;50.850;4.446;2023-02-28T05:22:29;21.08;;;13.68;;
23782;SDS011;12071;50.850;4.446;2023-02-28T05:24:55;23.40;;;13.73;;
23782;SDS011;12071;50.850;4.446;2023-02-28T05:27:21;22.85;;;14.15;;
23782;SDS011;12071;50.850;4.446;2023-02-28T05:29:46;20.88;;;13.95;;
23782;SDS011;12071;50.850;4.446;2023-02-28T05:32:12;22.77;;;14.85;;
23782;SDS011;12071;50.850;4.446;2023-02-28T05:34:38;20.10;;;14.10;;
23782;SDS011;12071;50.850;4.446;2023-02-28T05:37:05;20.13;;;14.13;;
23782;SDS011;12071;50.850;4.446;2023-02-28T05:39:31;22.92;;;13.88;;
23782;SDS011;12071;50.850;4.446;2023-02-28T05:41:58;21.63;;;13.65;;
23782;SDS011;12071;50.850;4.446;2023-02-28T05:44:23;20.25;;;15.05;;
23782;SDS011;12071;50.850;4.446;2023-02-28T05:46:49;20.70;;;13.80;;
23782;SDS011;12071;50.850;4.446;2023-02-28T05:49:15;21.67;;;14.23;;
23782;SDS011;12071;50.850;4.446;2023-02-28T05:51:41;26.23;;;17.30;;
23782;SDS011;12071;50.850;4.446;2023-02-28T05:54:06;23.92;;;13.52;;
23782;SDS011;12071;50.850;4.446;2023-02-28T05:56:32;20.48;;;13.43;;
23782;SDS011;12071;50.850;4.446;2023-02-28T05:59:00;25.85;;;13.95;;
23782;SDS011;12071;50.850;4.446;2023-02-28T06:01:35;23.95;;;12.88;;
23782;SDS011;12071;50.850;4.446;2023-02-28T06:04:04;28.35;;;13.90;;
23782;SDS011;12071;50.850;4.446;2023-02-28T06:06:31;23.92;;;13.43;;
23782;SDS011;12071;50.850;4.446;2023-02-28T06:08:59;20.52;;;14.30;;
23782;SDS011;12071;50.850;4.446;2023-02-28T06:11:25;17.85;;;12.98;;
23782;SDS011;12071;50.850;4.446;2023-02-28T06:13:58;24.23;;;12.60;;
23782;SDS011;12071;50.850;4.446;2023-02-28T06:16:26;20.50;;;13.10;;
23782;SDS011;12071;50.850;4.446;2023-02-28T06:18:53;23.65;;;12.98;;
23782;SDS011;12071;50.850;4.446;2023-02-28T06:21:21;17.52;;;12.07;;
23782;SDS011;12071;50.850;4.446;2023-02-28T06:23:47;19.60;;;12.00;;
23782;SDS011;12071;50.850;4.446;2023-02-28T06:26:13;18.35;;;11.93;;
23782;SDS011;12071;50.850;4.446;2023-02-28T06:28:38;17.90;;;11.93;;
23782;SDS011;12071;50.850;4.446;2023-02-28T06:31:12;19.20;;;11.07;;
23782;SDS011;12071;50.850;4.446;2023-02-28T06:33:39;19.45;;;11.43;;
23782;SDS011;12071;50.850;4.446;2023-02-28T06:36:06;15.85;;;11.13;;
23782;SDS011;12071;50.850;4.446;2023-02-28T06:38:32;20.25;;;11.25;;
23782;SDS011;12071;50.850;4.446;2023-02-28T06:40:59;18.08;;;11.23;;
23782;SDS011;12071;50.850;4.446;2023-02-28T06:43:25;17.63;;;11.45;;
23782;SDS011;12071;50.850;4.446;2023-02-28T06:45:57;17.30;;;11.27;;
23782;SDS011;12071;50.850;4.446;2023-02-28T06:48:24;19.02;;;12.88;;
23782;SDS011;12071;50.850;4.446;2023-02-28T06:50:50;27.52;;;12.88;;
23782;SDS011;12071;50.850;4.446;2023-02-28T06:53:17;17.55;;;12.10;;
23782;SDS011;12071;50.850;4.446;2023-02-28T06:55:43;19.52;;;11.73;;
23782;SDS011;12071;50.850;4.446;2023-02-28T06:58:08;16.75;;;11.20;;
23782;SDS011;12071;50.850;4.446;2023-02-28T07:00:41;18.85;;;11.15;;
23782;SDS011;12071;50.850;4.446;2023-02-28T07:03:07;17.02;;;11.00;;
23782;SDS011;12071;50.850;4.446;2023-02-28T07:05:34;17.50;;;11.40;;
23782;SDS011;12071;50.850;4.446;2023-02-28T07:08:01;17.00;;;12.20;;
23782;SDS011;12071;50.850;4.446;2023-02-28T07:10:28;18.38;;;10.60;;
23782;SDS011;12071;50.850;4.446;2023-02-28T07:12:55;14.40;;;11.10;;
23782;SDS011;12071;50.850;4.446;2023-02-28T07:15:20;15.18;;;10.77;;
23782;SDS011;12071;50.850;4.446;2023-02-28T07:17:46;16.65;;;11.48;;
23782;SDS011;12071;50.850;4.446;2023-02-28T07:20:12;17.80;;;10.70;;
23782;SDS011;12071;50.850;4.446;2023-02-28T07:22:37;17.88;;;10.88;;
23782;SDS011;12071;50.850;4.446;2023-02-28T07:25:04;19.45;;;10.43;;
23782;SDS011;12071;50.850;4.446;2023-02-28T07:27:30;19.55;;;10.98;;
23782;SDS011;12071;50.850;4.446;2023-02-28T07:29:56;13.27;;;9.88;;
23782;SDS011;12071;50.850;4.446;2023-02-28T07:32:21;18.02;;;11.07;;
23782;SDS011;12071;50.850;4.446;2023-02-28T07:34:47;20.77;;;11.38;;
23782;SDS011;12071;50.850;4.446;2023-02-28T07:37:13;19.23;;;10.05;;
23782;SDS011;12071;50.850;4.446;2023-02-28T07:39:39;19.65;;;10.38;;
23782;SDS011;12071;50.850;4.446;2023-02-28T07:42:07;14.32;;;9.82;;
23782;SDS011;12071;50.850;4.446;2023-02-28T07:44:35;15.82;;;10.20;;
23782;SDS011;12071;50.850;4.446;2023-02-28T07:47:05;18.20;;;9.13;;
23782;SDS011;12071;50.850;4.446;2023-02-28T07:49:31;14.98;;;9.43;;
23782;SDS011;12071;50.850;4.446;2023-02-28T07:51:57;13.70;;;8.98;;
23782;SDS011;12071;50.850;4.446;2023-02-28T07:54:23;11.52;;;8.07;;
23782;SDS011;12071;50.850;4.446;2023-02-28T07:56:48;15.40;;;9.15;;
23782;SDS011;12071;50.850;4.446;2023-02-28T07:59:14;11.43;;;8.40;;
23782;SDS011;12071;50.850;4.446;2023-02-28T08:01:39;16.48;;;8.75;;
23782;SDS011;12071;50.850;4.446;2023-02-28T08:04:05;15.18;;;9.35;;
23782;SDS011;12071;50.850;4.446;2023-02-28T08:06:31;19.17;;;8.55;;
23782;SDS011;12071;50.850;4.446;2023-02-28T08:08:56;11.63;;;7.43;;
23782;SDS011;12071;50.850;4.446;2023-02-28T08:11:22;18.40;;;7.95;;
23782;SDS011;12071;50.850;4.446;2023-02-28T08:13:48;13.82;;;7.82;;
23782;SDS011;12071;50.850;4.446;2023-02-28T08:16:13;13.82;;;7.32;;
23782;SDS011;12071;50.850;4.446;2023-02-28T08:18:42;11.82;;;6.82;;
23782;SDS011;12071;50.850;4.446;2023-02-28T08:21:09;9.68;;;7.43;;
23782;SDS011;12071;50.850;4.446;2023-02-28T08:23:35;16.20;;;7.15;;
23782;SDS011;12071;50.850;4.446;2023-02-28T08:26:01;10.98;;;7.32;;
23782;SDS011;12071;50.850;4.446;2023-02-28T08:28:27;15.07;;;6.90;;
23782;SDS011;12071;50.850;4.446;2023-02-28T08:30:52;11.80;;;6.57;;
23782;SDS011;12071;50.850;4.446;2023-02-28T08:33:20;9.60;;;6.43;;
23782;SDS011;12071;50.850;4.446;2023-02-28T08:35:45;10.57;;;6.13;;
23782;SDS011;12071;50.850;4.446;2023-02-28T08:38:11;11.68;;;6.18;;
23782;SDS011;12071;50.850;4.446;2023-02-28T08:40:37;10.88;;;6.15;;
23782;SDS011;12071;50.850;4.446;2023-02-28T08:43:02;10.68;;;6.15;;
23782;SDS011;12071;50.850;4.446;2023-02-28T08:45:28;11.73;;;6.22;;
23782;SDS011;12071;50.850;4.446;2023-02-28T08:47:54;8.93;;;5.40;;
23782;SDS011;12071;50.850;4.446;2023-02-28T08:50:20;6.47;;;4.82;;
23782;SDS011;12071;50.850;4.446;2023-02-28T08:52:46;8.68;;;5.65;;
23782;SDS011;12071;50.850;4.446;2023-02-28T08:55:12;7.43;;;4.90;;
23782;SDS011;12071;50.850;4.446;2023-02-28T08:57:37;10.57;;;5.28;;
23782;SDS011;12071;50.850;4.446;2023-02-28T09:00:03;9.80;;;5.43;;
23782;SDS011;12071;50.850;4.446;2023-02-28T09:02:30;6.70;;;5.10;;
23782;SDS011;12071;50.850;4.446;2023-02-28T09:04:56;7.55;;;4.72;;
23782;SDS011;12071;50.850;4.446;2023-02-28T09:07:23;7.22;;;4.65;;
23782;SDS011;12071;50.850;4.446;2023-02-28T09:09:49;9.48;;;5.10;;
23782;SDS011;12071;50.850;4.446;2023-02-28T09:12:21;10.40;;;5.20;;
23782;SDS011;12071;50.850;4.446;2023-02-28T09:14:51;10.43;;;4.90;;
23782;SDS011;12071;50.850;4.446;2023-02-28T09:17:16;5.38;;;4.22;;
23782;SDS011;12071;50.850;4.446;2023-02-28T09:19:42;8.40;;;4.55;;
23782;SDS011;12071;50.850;4.446;2023-02-28T09:22:09;4.18;;;3.50;;
23782;SDS011;12071;50.850;4.446;2023-02-28T09:24:38;8.43;;;4.57;;
23782;SDS011;12071;50.850;4.446;2023-02-28T09:27:04;5.45;;;3.50;;
23782;SDS011;12071;50.850;4.446;2023-02-28T09:29:30;4.43;;;3.53;;
23782;SDS011;12071;50.850;4.446;2023-02-28T09:31:56;5.97;;;3.65;;
23782;SDS011;12071;50.850;4.446;2023-02-28T09:34:23;6.75;;;4.45;;
23782;SDS011;12071;50.850;4.446;2023-02-28T09:36:49;4.82;;;3.78;;
23782;SDS011;12071;50.850;4.446;2023-02-28T09:39:19;9.32;;;3.55;;
23782;SDS011;12071;50.850;4.446;2023-02-28T09:41:47;5.03;;;3.38;;
23782;SDS011;12071;50.850;4.446;2023-02-28T09:46:45;4.00;;;2.83;;
23782;SDS011;12071;50.850;4.446;2023-02-28T09:49:16;5.63;;;2.80;;
23782;SDS011;12071;50.850;4.446;2023-02-28T09:52:18;7.07;;;3.30;;
23782;SDS011;12071;50.850;4.446;2023-02-28T09:54:38;5.15;;;2.85;;
23782;SDS011;12071;50.850;4.446;2023-02-28T09:57:19;4.88;;;3.05;;
23782;SDS011;12071;50.850;4.446;2023-02-28T10:05:50;5.18;;;2.75;;
23782;SDS011;12071;50.850;4.446;2023-02-28T10:08:32;5.82;;;3.17;;
23782;SDS011;12071;50.850;4.446;2023-02-28T10:11:06;12.65;;;3.10;;
23782;SDS011;12071;50.850;4.446;2023-02-28T10:16:14;3.10;;;2.63;;
23782;SDS011;12071;50.850;4.446;2023-02-28T10:18:54;5.00;;;2.80;;
23782;SDS011;12071;50.850;4.446;2023-02-28T10:21:29;4.10;;;2.88;;
23782;SDS011;12071;50.850;4.446;2023-02-28T10:24:43;7.20;;;2.80;;
23782;SDS011;12071;50.850;4.446;2023-02-28T10:27:01;5.53;;;2.60;;
23782;SDS011;12071;50.850;4.446;2023-02-28T10:29:44;5.03;;;2.00;;
23782;SDS011;12071;50.850;4.446;2023-02-28T10:32:15;5.63;;;2.20;;
23782;SDS011;12071;50.850;4.446;2023-02-28T10:34:43;2.67;;;1.80;;
23782;SDS011;12071;50.850;4.446;2023-02-28T10:37:09;4.63;;;2.08;;
23782;SDS011;12071;50.850;4.446;2023-02-28T10:42:19;2.55;;;1.95;;
23782;SDS011;12071;50.850;4.446;2023-02-28T10:44:46;3.10;;;1.90;;
23782;SDS011;12071;50.850;4.446;2023-02-28T10:47:16;2.22;;;1.70;;
23782;SDS011;12071;50.850;4.446;2023-02-28T10:49:48;4.18;;;1.80;;
23782;SDS011;12071;50.850;4.446;2023-02-28T10:52:32;2.10;;;1.80;;
23782;SDS011;12071;50.850;4.446;2023-02-28T10:57:59;6.20;;;2.00;;
23782;SDS011;12071;50.850;4.446;2023-02-28T11:00:25;3.33;;;1.90;;
23782;SDS011;12071;50.850;4.446;2023-02-28T11:02:58;6.38;;;2.45;;
23782;SDS011;12071;50.850;4.446;2023-02-28T11:05:31;5.50;;;2.47;;
23782;SDS011;12071;50.850;4.446;2023-02-28T11:08:04;5.90;;;2.45;;
23782;SDS011;12071;50.850;4.446;2023-02-28T11:10:36;6.05;;;2.47;;
23782;SDS011;12071;50.850;4.446;2023-02-28T11:13:02;2.97;;;2.20;;
23782;SDS011;12071;50.850;4.446;2023-02-28T11:15:37;2.28;;;2.08;;
23782;SDS011;12071;50.850;4.446;2023-02-28T11:18:17;2.88;;;1.92;;
23782;SDS011;12071;50.850;4.446;2023-02-28T11:20:47;2.45;;;2.00;;
23782;SDS011;12071;50.850;4.446;2023-02-28T11:23:14;3.50;;;2.03;;
23782;SDS011;12071;50.850;4.446;2023-02-28T11:25:46;2.40;;;2.05;;
23782;SDS011;12071;50.850;4.446;2023-02-28T11:28:33;2.97;;;2.25;;
23782;SDS011;12071;50.850;4.446;2023-02-28T11:31:05;4.07;;;2.40;;
23782;SDS011;12071;50.850;4.446;2023-02-28T11:36:20;3.53;;;2.10;;
23782;SDS011;12071;50.850;4.446;2023-02-28T11:38:50;3.95;;;2.30;;
23782;SDS011;12071;50.850;4.446;2023-02-28T11:46:41;2.60;;;2.10;;
23782;SDS011;12071;50.850;4.446;2023-02-28T11:52:08;3.85;;;2.35;;
23782;SDS011;12071;50.850;4.446;2023-02-28T11:57:40;3.35;;;2.47;;
23782;SDS011;12071;50.850;4.446;2023-02-28T12:08:26;2.55;;;1.88;;
23782;SDS011;12071;50.850;4.446;2023-02-28T12:13:47;5.20;;;2.10;;
23782;SDS011;12071;50.850;4.446;2023-02-28T12:16:43;7.85;;;2.22;;
23782;SDS011;12071;50.850;4.446;2023-02-28T12:27:20;2.97;;;1.95;;
23782;SDS011;12071;50.850;4.446;2023-02-28T12:29:51;2.92;;;2.22;;
23782;SDS011;12071;50.850;4.446;2023-02-28T12:32:23;3.63;;;2.00;;
23782;SDS011;12071;50.850;4.446;2023-02-28T12:37:47;4.00;;;2.20;;
23782;SDS011;12071;50.850;4.446;2023-02-28T12:40:23;3.13;;;2.15;;
23782;SDS011;12071;50.850;4.446;2023-02-28T12:42:52;2.80;;;2.08;;
23782;SDS011;12071;50.850;4.446;2023-02-28T12:45:39;3.28;;;1.98;;
23782;SDS011;12071;50.850;4.446;2023-02-28T12:48:11;3.60;;;1.85;;
23782;SDS011;12071;50.850;4.446;2023-02-28T12:50:44;3.80;;;1.98;;
23782;SDS011;12071;50.850;4.446;2023-02-28T12:55:57;2.97;;;2.03;;
23782;SDS011;12071;50.850;4.446;2023-02-28T12:58:39;2.97;;;2.30;;
23782;SDS011;12071;50.850;4.446;2023-02-28T13:03:57;3.47;;;2.42;;
23782;SDS011;12071;50.850;4.446;2023-02-28T13:09:37;2.40;;;2.15;;
23782;SDS011;12071;50.850;4.446;2023-02-28T13:12:14;4.72;;;2.42;;
23782;SDS011;12071;50.850;4.446;2023-02-28T13:14:41;3.22;;;2.47;;
23782;SDS011;12071;50.850;4.446;2023-02-28T13:19:41;3.53;;;2.40;;
23782;SDS011;12071;50.850;4.446;2023-02-28T13:27:50;2.95;;;2.20;;
23782;SDS011;12071;50.850;4.446;2023-02-28T13:36:00;2.38;;;2.10;;
23782;SDS011;12071;50.850;4.446;2023-02-28T13:41:48;8.55;;;2.28;;
23782;SDS011;12071;50.850;4.446;2023-02-28T13:44:15;6.05;;;2.45;;
23782;SDS011;12071;50.850;4.446;2023-02-28T13:54:39;4.07;;;2.10;;
23782;SDS011;12071;50.850;4.446;2023-02-28T14:03:09;3.35;;;2.42;;
23782;SDS011;12071;50.850;4.446;2023-02-28T14:06:13;3.15;;;2.33;;
23782;SDS011;12071;50.850;4.446;2023-02-28T14:08:59;4.53;;;2.22;;
23782;SDS011;12071;50.850;4.446;2023-02-28T14:11:42;2.78;;;2.08;;
23782;SDS011;12071;50.850;4.446;2023-02-28T14:14:09;3.20;;;2.53;;
23782;SDS011;12071;50.850;4.446;2023-02-28T14:17:04;3.08;;;2.05;;
23782;SDS011;12071;50.850;4.446;2023-02-28T14:19:38;3.85;;;2.40;;
23782;SDS011;12071;50.850;4.446;2023-02-28T14:38:13;3.97;;;2.40;;
23782;SDS011;12071;50.850;4.446;2023-02-28T14:40:43;4.00;;;2.50;;
23782;SDS011;12071;50.850;4.446;2023-02-28T14:43:22;3.20;;;2.60;;
23782;SDS011;12071;50.850;4.446;2023-02-28T14:45:50;2.72;;;1.98;;
23782;SDS011;12071;50.850;4.446;2023-02-28T14:48:19;2.55;;;2.30;;
23782;SDS011;12071;50.850;4.446;2023-02-28T14:50:50;4.38;;;2.38;;
23782;SDS011;12071;50.850;4.446;2023-02-28T14:53:18;4.28;;;2.75;;
23782;SDS011;12071;50.850;4.446;2023-02-28T14:55:46;6.75;;;2.20;;
23782;SDS011;12071;50.850;4.446;2023-02-28T14:58:19;4.25;;;2.45;;
23782;SDS011;12071;50.850;4.446;2023-02-28T15:00:54;4.13;;;2.40;;
23782;SDS011;12071;50.850;4.446;2023-02-28T15:05:55;2.75;;;2.47;;
23782;SDS011;12071;50.850;4.446;2023-02-28T15:08:42;3.92;;;2.95;;
23782;SDS011;12071;50.850;4.446;2023-02-28T15:11:11;3.83;;;2.17;;
23782;SDS011;12071;50.850;4.446;2023-02-28T15:13:48;3.35;;;2.63;;
23782;SDS011;12071;50.850;4.446;2023-02-28T15:16:38;6.03;;;2.60;;
23782;SDS011;12071;50.850;4.446;2023-02-28T15:21:59;4.25;;;2.65;;
23782;SDS011;12071;50.850;4.446;2023-02-28T15:24:37;4.40;;;2.70;;
23782;SDS011;12071;50.850;4.446;2023-02-28T15:27:07;4.63;;;2.67;;
23782;SDS011;12071;50.850;4.446;2023-02-28T15:29:44;5.00;;;3.15;;
23782;SDS011;12071;50.850;4.446;2023-02-28T15:32:24;5.38;;;2.97;;
23782;SDS011;12071;50.850;4.446;2023-02-28T15:34:58;4.45;;;2.60;;
23782;SDS011;12071;50.850;4.446;2023-02-28T15:37:47;5.45;;;2.40;;
23782;SDS011;12071;50.850;4.446;2023-02-28T15:43:05;3.88;;;2.70;;
23782;SDS011;12071;50.850;4.446;2023-02-28T15:45:38;3.80;;;2.47;;
23782;SDS011;12071;50.850;4.446;2023-02-28T15:48:20;5.20;;;2.53;;
23782;SDS011;12071;50.850;4.446;2023-02-28T15:50:54;5.88;;;2.70;;
23782;SDS011;12071;50.850;4.446;2023-02-28T15:53:28;2.92;;;2.33;;
23782;SDS011;12071;50.850;4.446;2023-02-28T15:55:59;5.30;;;2.47;;
23782;SDS011;12071;50.850;4.446;2023-02-28T15:58:28;3.05;;;2.40;;
23782;SDS011;12071;50.850;4.446;2023-02-28T16:03:45;4.18;;;2.40;;
23782;SDS011;12071;50.850;4.446;2023-02-28T16:08:44;3.08;;;2.42;;
23782;SDS011;12071;50.850;4.446;2023-02-28T16:11:10;2.97;;;2.40;;
23782;SDS011;12071;50.850;4.446;2023-02-28T16:13:36;7.95;;;2.50;;
23782;SDS011;12071;50.850;4.446;2023-02-28T16:16:02;3.88;;;2.35;;
23782;SDS011;12071;50.850;4.446;2023-02-28T16:18:28;5.47;;;2.75;;
23782;SDS011;12071;50.850;4.446;2023-02-28T16:20:54;5.78;;;2.85;;
23782;SDS011;12071;50.850;4.446;2023-02-28T16:23:19;5.20;;;2.72;;
23782;SDS011;12071;50.850;4.446;2023-02-28T16:25:45;3.65;;;2.70;;
23782;SDS011;12071;50.850;4.446;2023-02-28T16:28:21;2.95;;;2.63;;
23782;SDS011;12071;50.850;4.446;2023-02-28T16:30:51;4.10;;;2.60;;
23782;SDS011;12071;50.850;4.446;2023-02-28T16:33:17;3.78;;;2.50;;
23782;SDS011;12071;50.850;4.446;2023-02-28T16:35:43;3.00;;;2.63;;
23782;SDS011;12071;50.850;4.446;2023-02-28T16:38:08;4.22;;;2.60;;
23782;SDS011;12071;50.850;4.446;2023-02-28T16:40:35;3.65;;;2.42;;
23782;SDS011;12071;50.850;4.446;2023-02-28T16:43:01;6.30;;;2.70;;
23782;SDS011;12071;50.850;4.446;2023-02-28T16:45:33;4.28;;;2.72;;
23782;SDS011;12071;50.850;4.446;2023-02-28T16:47:58;4.30;;;2.60;;
23782;SDS011;12071;50.850;4.446;2023-02-28T16:50:28;2.55;;;2.35;;
23782;SDS011;12071;50.850;4.446;2023-02-28T16:52:55;4.60;;;2.60;;
23782;SDS011;12071;50.850;4.446;2023-02-28T16:55:21;4.53;;;2.50;;
23782;SDS011;12071;50.850;4.446;2023-02-28T16:57:52;5.97;;;2.38;;
23782;SDS011;12071;50.850;4.446;2023-02-28T17:00:19;7.13;;;2.20;;
23782;SDS011;12071;50.850;4.446;2023-02-28T17:02:46;5.05;;;2.58;;
23782;SDS011;12071;50.850;4.446;2023-02-28T17:05:11;3.67;;;2.80;;
23782;SDS011;12071;50.850;4.446;2023-02-28T17:07:38;5.47;;;2.63;;
23782;SDS011;12071;50.850;4.446;2023-02-28T17:12:36;6.32;;;2.50;;
23782;SDS011;12071;50.850;4.446;2023-02-28T17:15:01;5.13;;;2.45;;
23782;SDS011;12071;50.850;4.446;2023-02-28T17:17:27;4.13;;;2.75;;
23782;SDS011;12071;50.850;4.446;2023-02-28T17:19:54;4.13;;;2.70;;
23782;SDS011;12071;50.850;4.446;2023-02-28T17:22:19;4.05;;;2.72;;
23782;SDS011;12071;50.850;4.446;2023-02-28T17:24:45;5.05;;;2.85;;
23782;SDS011;12071;50.850;4.446;2023-02-28T17:27:11;4.20;;;2.63;;
23782;SDS011;12071;50.850;4.446;2023-02-28T17:29:37;3.97;;;3.00;;
23782;SDS011;12071;50.850;4.446;2023-02-28T17:32:03;5.78;;;2.78;;
23782;SDS011;12071;50.850;4.446;2023-02-28T17:34:29;7.15;;;3.17;;